PWSweather.com
Personal Weather Stations
Station Observations
KNVELKO7
Elko, NV 89801

Elko, NV 89801

Lat: 40.963233, Lon: -115.592836

Elevation: 5230

Station Type: WS-2812

High Low Average
Temperature 51.7°F10.9°F 17.3°F-8.2°F 35.2°F1.8°F
Dew Point 36.9°F2.7°F 13.1°F-10.5°F 25.4°F-3.7°F
Winds 15.5 mph SW24.9 mph SW Calm Calm 2.7 mph 4.3 mph
Wind Gusts 18.1 mph29.1 mph -- 4.1 mph6.6 mph
Humidity 88% 46% 69%
Pressure 30.05 in1017.60 in 29.97 in1014.90 in -
Precipitation 0.00 in0.00 in - -
Hour Temp Dew Point Humidity Winds Wind Gusts Pressure Precip Precip Rate Daily Precip Total
12:01 AM 27.5°F-2.5°C 21.9°F-5.6°C 79% 1.3 mph E2.1 kmh E 2.0 mph3.2 kmh 30.00 in1015.9 mb 0.00 in0.0 mm 0.00 in/hr0.0 mm/hr 0.00 in0.0 mm
12:06 AM 27.4°F-2.6°C 21.7°F-5.7°C 79% 2.4 mph E3.9 kmh E 3.1 mph5.0 kmh 29.99 in1015.6 mb 0.00 in0.0 mm 0.00 in/hr0.0 mm/hr 0.00 in0.0 mm
12:11 AM 27.4°F-2.6°C 21.7°F-5.7°C 79% 0.9 mph E1.4 kmh E 3.1 mph5.0 kmh 29.99 in1015.6 mb 0.00 in0.0 mm 0.00 in/hr0.0 mm/hr 0.00 in0.0 mm
12:16 AM 27.2°F-2.7°C 21.5°F-5.8°C 79% 0.9 mph E1.4 kmh E 3.1 mph5.0 kmh 29.99 in1015.6 mb 0.00 in0.0 mm 0.00 in/hr0.0 mm/hr 0.00 in0.0 mm
12:21 AM 27.0°F-2.8°C 21.6°F-5.8°C 80% 1.2 mph E1.9 kmh E 2.5 mph4.0 kmh 29.99 in1015.6 mb 0.00 in0.0 mm 0.00 in/hr0.0 mm/hr 0.00 in0.0 mm
12:26 AM 26.8°F-2.9°C 21.4°F-5.9°C 80% 2.5 mph ENE4.0 kmh ENE 3.1 mph5.0 kmh 29.99 in1015.6 mb 0.00 in0.0 mm 0.00 in/hr0.0 mm/hr 0.00 in0.0 mm
12:31 AM 26.8°F-2.9°C 21.4°F-5.9°C 80% 1.7 mph E2.7 kmh E 3.1 mph5.0 kmh 29.99 in1015.6 mb 0.00 in0.0 mm 0.00 in/hr0.0 mm/hr 0.00 in0.0 mm
12:36 AM 26.6°F-3.0°C 21.2°F-6.0°C 80% 0.2 mph NNE0.3 kmh NNE 2.9 mph4.7 kmh 29.99 in1015.6 mb 0.00 in0.0 mm 0.00 in/hr0.0 mm/hr 0.00 in0.0 mm
12:41 AM 26.5°F-3.1°C 21.1°F-6.1°C 80% 2.7 mph 4.3 kmh 2.9 mph4.7 kmh 29.99 in1015.6 mb 0.00 in0.0 mm 0.00 in/hr0.0 mm/hr 0.00 in0.0 mm
12:46 AM 26.3°F-3.2°C 20.6°F-6.3°C 79% 2.8 mph NNE4.5 kmh NNE 3.4 mph5.5 kmh 29.99 in1015.6 mb 0.00 in0.0 mm 0.00 in/hr0.0 mm/hr 0.00 in0.0 mm
12:51 AM 26.3°F-3.2°C 20.9°F-6.2°C 80% 0.9 mph NNE1.4 kmh NNE 3.4 mph5.5 kmh 29.99 in1015.6 mb 0.00 in0.0 mm 0.00 in/hr0.0 mm/hr 0.00 in0.0 mm
12:56 AM 25.9°F-3.4°C 20.6°F-6.3°C 80% Calm Calm 2.9 mph4.7 kmh 29.99 in1015.6 mb 0.00 in0.0 mm 0.00 in/hr0.0 mm/hr 0.00 in0.0 mm
01:01 AM 25.7°F-3.5°C 20.4°F-6.4°C 80% 0.5 mph ENE0.8 kmh ENE 0.7 mph1.1 kmh 29.99 in1015.6 mb 0.00 in0.0 mm 0.00 in/hr0.0 mm/hr 0.00 in0.0 mm
01:06 AM 25.7°F-3.5°C 20.4°F-6.4°C 80% 2.0 mph NE3.2 kmh NE 2.7 mph4.3 kmh 29.99 in1015.6 mb 0.00 in0.0 mm 0.00 in/hr0.0 mm/hr 0.00 in0.0 mm
01:11 AM 25.6°F-3.6°C 20.5°F-6.4°C 81% 3.5 mph N5.6 kmh N 3.6 mph5.8 kmh 29.99 in1015.6 mb 0.00 in0.0 mm 0.00 in/hr0.0 mm/hr 0.00 in0.0 mm
01:16 AM 25.4°F-3.7°C 20.1°F-6.6°C 80% 1.8 mph N2.9 kmh N 3.6 mph5.8 kmh 29.99 in1015.6 mb 0.00 in0.0 mm 0.00 in/hr0.0 mm/hr 0.00 in0.0 mm
01:21 AM 25.2°F-3.8°C 20.0°F-6.7°C 80% 2.3 mph 3.7 kmh 3.1 mph5.0 kmh 29.99 in1015.6 mb 0.00 in0.0 mm 0.00 in/hr0.0 mm/hr 0.00 in0.0 mm
01:26 AM 25.2°F-3.8°C 20.0°F-6.7°C 80% 4.4 mph 7.1 kmh 4.5 mph7.2 kmh 29.99 in1015.6 mb 0.00 in0.0 mm 0.00 in/hr0.0 mm/hr 0.00 in0.0 mm
01:31 AM 25.0°F-3.9°C 19.8°F-6.8°C 80% 1.7 mph 2.7 kmh 4.7 mph7.6 kmh 29.99 in1015.6 mb 0.00 in0.0 mm 0.00 in/hr0.0 mm/hr 0.00 in0.0 mm
01:36 AM 24.8°F-4.0°C 19.9°F-6.7°C 81% Calm Calm 4.7 mph7.6 kmh 29.99 in1015.6 mb 0.00 in0.0 mm 0.00 in/hr0.0 mm/hr 0.00 in0.0 mm
01:41 AM 24.8°F-4.0°C 19.9°F-6.7°C 81% 0.2 mph N0.3 kmh N 1.8 mph2.9 kmh 29.99 in1015.6 mb 0.00 in0.0 mm 0.00 in/hr0.0 mm/hr 0.00 in0.0 mm
01:46 AM 24.8°F-4.0°C 19.9°F-6.7°C 81% 1.1 mph NNE1.8 kmh NNE 1.8 mph2.9 kmh 29.99 in1015.6 mb 0.00 in0.0 mm 0.00 in/hr0.0 mm/hr 0.00 in0.0 mm
01:51 AM 24.8°F-4.0°C 19.9°F-6.7°C 81% Calm Calm 1.8 mph2.9 kmh 30.00 in1015.9 mb 0.00 in0.0 mm 0.00 in/hr0.0 mm/hr 0.00 in0.0 mm
01:56 AM 24.8°F-4.0°C 20.2°F-6.6°C 82% Calm Calm 0.9 mph1.4 kmh 29.99 in1015.6 mb 0.00 in0.0 mm 0.00 in/hr0.0 mm/hr 0.00 in0.0 mm
02:01 AM 24.8°F-4.0°C 20.2°F-6.6°C 82% Calm Calm -- 29.99 in1015.6 mb 0.00 in0.0 mm 0.00 in/hr0.0 mm/hr 0.00 in0.0 mm
02:06 AM 24.7°F-4.1°C 20.0°F-6.7°C 82% Calm Calm -- 30.00 in1015.9 mb 0.00 in0.0 mm 0.00 in/hr0.0 mm/hr 0.00 in0.0 mm
02:11 AM 24.3°F-4.3°C 19.6°F-6.9°C 82% Calm Calm -- 29.99 in1015.6 mb 0.00 in0.0 mm 0.00 in/hr0.0 mm/hr 0.00 in0.0 mm
02:16 AM 23.9°F-4.5°C 19.0°F-7.2°C 81% 0.5 mph NE0.8 kmh NE 0.7 mph1.1 kmh 29.99 in1015.6 mb 0.00 in0.0 mm 0.00 in/hr0.0 mm/hr 0.00 in0.0 mm
02:21 AM 24.1°F-4.4°C 19.4°F-7.0°C 82% 0.2 mph ENE0.3 kmh ENE 0.7 mph1.1 kmh 29.99 in1015.6 mb 0.00 in0.0 mm 0.00 in/hr0.0 mm/hr 0.00 in0.0 mm
02:26 AM 24.1°F-4.4°C 19.4°F-7.0°C 82% Calm Calm 0.4 mph0.6 kmh 29.99 in1015.6 mb 0.00 in0.0 mm 0.00 in/hr0.0 mm/hr 0.00 in0.0 mm
02:31 AM 23.9°F-4.5°C 19.3°F-7.1°C 82% 0.3 mph ENE0.5 kmh ENE 0.4 mph0.6 kmh 29.99 in1015.6 mb 0.00 in0.0 mm 0.00 in/hr0.0 mm/hr 0.00 in0.0 mm
02:36 AM 23.9°F-4.5°C 19.3°F-7.1°C 82% Calm Calm 1.3 mph2.1 kmh 29.99 in1015.6 mb 0.00 in0.0 mm 0.00 in/hr0.0 mm/hr 0.00 in0.0 mm
02:41 AM 23.9°F-4.5°C 19.3°F-7.1°C 82% Calm Calm 1.3 mph2.1 kmh 29.99 in1015.6 mb 0.00 in0.0 mm 0.00 in/hr0.0 mm/hr 0.00 in0.0 mm
02:46 AM 23.4°F-4.8°C 18.7°F-7.4°C 82% Calm Calm 0.2 mph0.3 kmh 29.99 in1015.6 mb 0.00 in0.0 mm 0.00 in/hr0.0 mm/hr 0.00 in0.0 mm
02:51 AM 23.2°F-4.9°C 18.5°F-7.5°C 82% 0.2 mph NW0.3 kmh NW 0.2 mph0.3 kmh 29.99 in1015.6 mb 0.00 in0.0 mm 0.00 in/hr0.0 mm/hr 0.00 in0.0 mm
02:56 AM 22.9°F-5.1°C 18.2°F-7.7°C 82% 0.2 mph NW0.3 kmh NW 0.2 mph0.3 kmh 29.99 in1015.6 mb 0.00 in0.0 mm 0.00 in/hr0.0 mm/hr 0.00 in0.0 mm
03:02 AM 22.7°F-5.2°C 18.0°F-7.8°C 82% Calm Calm 0.2 mph0.3 kmh 29.99 in1015.6 mb 0.00 in0.0 mm 0.00 in/hr0.0 mm/hr 0.00 in0.0 mm
03:07 AM 22.5°F-5.3°C 17.8°F-7.9°C 82% Calm Calm -- 29.99 in1015.6 mb 0.00 in0.0 mm 0.00 in/hr0.0 mm/hr 0.00 in0.0 mm
03:12 AM 22.7°F-5.2°C 18.0°F-7.8°C 82% 0.4 mph 0.6 kmh 0.4 mph0.6 kmh 29.99 in1015.6 mb 0.00 in0.0 mm 0.00 in/hr0.0 mm/hr 0.00 in0.0 mm
03:17 AM 22.9°F-5.1°C 18.2°F-7.7°C 82% 1.7 mph 2.7 kmh 2.0 mph3.2 kmh 29.99 in1015.6 mb 0.00 in0.0 mm 0.00 in/hr0.0 mm/hr 0.00 in0.0 mm
03:22 AM 22.9°F-5.1°C 18.2°F-7.7°C 82% 1.3 mph NE2.1 kmh NE 2.2 mph3.5 kmh 29.99 in1015.6 mb 0.00 in0.0 mm 0.00 in/hr0.0 mm/hr 0.00 in0.0 mm
03:27 AM 22.7°F-5.2°C 18.0°F-7.8°C 82% 1.5 mph NE2.4 kmh NE 2.7 mph4.3 kmh 29.99 in1015.6 mb 0.00 in0.0 mm 0.00 in/hr0.0 mm/hr 0.00 in0.0 mm
03:32 AM 22.9°F-5.1°C 18.5°F-7.5°C 83% 1.1 mph 1.8 kmh 2.7 mph4.3 kmh 29.99 in1015.6 mb 0.00 in0.0 mm 0.00 in/hr0.0 mm/hr 0.00 in0.0 mm
03:36 AM 22.7°F-5.2°C 18.0°F-7.8°C 82% 0.9 mph ENE1.4 kmh ENE 1.3 mph2.1 kmh 29.99 in1015.6 mb 0.00 in0.0 mm 0.00 in/hr0.0 mm/hr 0.00 in0.0 mm
03:41 AM 22.3°F-5.4°C 17.9°F-7.8°C 83% 1.1 mph ENE1.8 kmh ENE 1.3 mph2.1 kmh 29.99 in1015.6 mb 0.00 in0.0 mm 0.00 in/hr0.0 mm/hr 0.00 in0.0 mm
03:46 AM 22.5°F-5.3°C 18.1°F-7.7°C 83% 1.0 mph NE1.6 kmh NE 2.5 mph4.0 kmh 29.99 in1015.6 mb 0.00 in0.0 mm 0.00 in/hr0.0 mm/hr 0.00 in0.0 mm
03:51 AM 22.3°F-5.4°C 17.9°F-7.8°C 83% 0.2 mph 0.3 kmh 2.5 mph4.0 kmh 29.99 in1015.6 mb 0.00 in0.0 mm 0.00 in/hr0.0 mm/hr 0.00 in0.0 mm
03:56 AM 22.0°F-5.6°C 17.6°F-8.0°C 83% Calm Calm 0.2 mph0.3 kmh 29.99 in1015.6 mb 0.00 in0.0 mm 0.00 in/hr0.0 mm/hr 0.00 in0.0 mm
04:02 AM 21.4°F-5.9°C 17.0°F-8.3°C 83% 0.2 mph 0.3 kmh 0.9 mph1.4 kmh 29.99 in1015.6 mb 0.00 in0.0 mm 0.00 in/hr0.0 mm/hr 0.00 in0.0 mm
04:07 AM 21.1°F-6.1°C 16.7°F-8.5°C 83% Calm Calm 0.9 mph1.4 kmh 29.99 in1015.6 mb 0.00 in0.0 mm 0.00 in/hr0.0 mm/hr 0.00 in0.0 mm
04:12 AM 20.9°F-6.2°C 16.5°F-8.6°C 83% 0.6 mph 1.0 kmh 0.9 mph1.4 kmh 30.00 in1015.9 mb 0.00 in0.0 mm 0.00 in/hr0.0 mm/hr 0.00 in0.0 mm
04:17 AM 21.1°F-6.1°C 16.7°F-8.5°C 83% 0.8 mph NNE1.3 kmh NNE 2.2 mph3.5 kmh 30.00 in1015.9 mb 0.00 in0.0 mm 0.00 in/hr0.0 mm/hr 0.00 in0.0 mm
04:22 AM 21.2°F-6.0°C 17.1°F-8.3°C 84% Calm Calm 2.2 mph3.5 kmh 30.00 in1015.9 mb 0.00 in0.0 mm 0.00 in/hr0.0 mm/hr 0.00 in0.0 mm
04:27 AM 20.9°F-6.2°C 16.7°F-8.5°C 84% Calm Calm 0.4 mph0.6 kmh 30.00 in1015.9 mb 0.00 in0.0 mm 0.00 in/hr0.0 mm/hr 0.00 in0.0 mm
04:32 AM 20.5°F-6.4°C 16.1°F-8.8°C 83% Calm Calm -- 30.00 in1015.9 mb 0.00 in0.0 mm 0.00 in/hr0.0 mm/hr 0.00 in0.0 mm
04:37 AM 20.2°F-6.6°C 15.8°F-9.0°C 83% Calm Calm -- 30.00 in1015.9 mb 0.00 in0.0 mm 0.00 in/hr0.0 mm/hr 0.00 in0.0 mm
04:42 AM 19.8°F-6.8°C 15.4°F-9.2°C 83% Calm Calm -- 30.00 in1015.9 mb 0.00 in0.0 mm 0.00 in/hr0.0 mm/hr 0.00 in0.0 mm
04:47 AM 19.4°F-7.0°C 15.0°F-9.4°C 83% Calm Calm -- 30.00 in1015.9 mb 0.00 in0.0 mm 0.00 in/hr0.0 mm/hr 0.00 in0.0 mm
04:52 AM 19.3°F-7.1°C 14.9°F-9.5°C 83% Calm Calm -- 30.00 in1015.9 mb 0.00 in0.0 mm 0.00 in/hr0.0 mm/hr 0.00 in0.0 mm
04:57 AM 18.9°F-7.3°C 14.5°F-9.7°C 83% Calm Calm -- 30.00 in1015.9 mb 0.00 in0.0 mm 0.00 in/hr0.0 mm/hr 0.00 in0.0 mm
05:02 AM 18.4°F-7.6°C 14.0°F-10.0°C 83% 0.2 mph WNW0.3 kmh WNW 0.2 mph0.3 kmh 30.00 in1015.9 mb 0.00 in0.0 mm 0.00 in/hr0.0 mm/hr 0.00 in0.0 mm
05:07 AM 18.2°F-7.7°C 13.8°F-10.1°C 83% Calm Calm 0.2 mph0.3 kmh 30.00 in1015.9 mb 0.00 in0.0 mm 0.00 in/hr0.0 mm/hr 0.00 in0.0 mm
05:12 AM 18.0°F-7.8°C 13.6°F-10.2°C 83% 0.5 mph N0.8 kmh N 0.7 mph1.1 kmh 30.00 in1015.9 mb 0.00 in0.0 mm 0.00 in/hr0.0 mm/hr 0.00 in0.0 mm
05:17 AM 18.0°F-7.8°C 13.6°F-10.2°C 83% 0.2 mph NNE0.3 kmh NNE 0.7 mph1.1 kmh 30.00 in1015.9 mb 0.00 in0.0 mm 0.00 in/hr0.0 mm/hr 0.00 in0.0 mm
05:22 AM 18.4°F-7.6°C 14.0°F-10.0°C 83% 1.7 mph NE2.7 kmh NE 1.8 mph2.9 kmh 30.00 in1015.9 mb 0.00 in0.0 mm 0.00 in/hr0.0 mm/hr 0.00 in0.0 mm
05:27 AM 18.9°F-7.3°C 14.8°F-9.6°C 84% 3.0 mph NNE4.8 kmh NNE 3.4 mph5.5 kmh 30.00 in1015.9 mb 0.00 in0.0 mm 0.00 in/hr0.0 mm/hr 0.00 in0.0 mm
05:32 AM 19.3°F-7.1°C 15.1°F-9.4°C 84% 6.3 mph 10.1 kmh 6.7 mph10.8 kmh 30.00 in1015.9 mb 0.00 in0.0 mm 0.00 in/hr0.0 mm/hr 0.00 in0.0 mm
05:37 AM 19.1°F-7.2°C 14.7°F-9.6°C 83% 3.0 mph NNE4.8 kmh NNE 6.7 mph10.8 kmh 30.00 in1015.9 mb 0.00 in0.0 mm 0.00 in/hr0.0 mm/hr 0.00 in0.0 mm
05:42 AM 19.1°F-7.2°C 14.9°F-9.5°C 84% 2.8 mph 4.5 kmh 6.0 mph9.7 kmh 30.00 in1015.9 mb 0.00 in0.0 mm 0.00 in/hr0.0 mm/hr 0.00 in0.0 mm
05:47 AM 18.5°F-7.5°C 14.1°F-9.9°C 83% Calm Calm 3.4 mph5.5 kmh 30.00 in1015.9 mb 0.00 in0.0 mm 0.00 in/hr0.0 mm/hr 0.00 in0.0 mm
05:52 AM 17.8°F-7.9°C 13.4°F-10.3°C 83% Calm Calm 0.7 mph1.1 kmh 30.00 in1015.9 mb 0.00 in0.0 mm 0.00 in/hr0.0 mm/hr 0.00 in0.0 mm
05:57 AM 17.6°F-8.0°C 13.5°F-10.3°C 84% Calm Calm -- 30.01 in1016.3 mb 0.00 in0.0 mm 0.00 in/hr0.0 mm/hr 0.00 in0.0 mm
06:02 AM 17.3°F-8.2°C 13.1°F-10.5°C 84% 0.4 mph NNW0.6 kmh NNW 0.4 mph0.6 kmh 30.01 in1016.3 mb 0.00 in0.0 mm 0.00 in/hr0.0 mm/hr 0.00 in0.0 mm
06:07 AM 17.5°F-8.1°C 13.3°F-10.4°C 84% 2.3 mph 3.7 kmh 2.9 mph4.7 kmh 30.01 in1016.3 mb 0.00 in0.0 mm 0.00 in/hr0.0 mm/hr 0.00 in0.0 mm
06:12 AM 17.6°F-8.0°C 13.5°F-10.3°C 84% 2.5 mph 4.0 kmh 3.4 mph5.5 kmh 30.02 in1016.6 mb 0.00 in0.0 mm 0.00 in/hr0.0 mm/hr 0.00 in0.0 mm
06:17 AM 17.8°F-7.9°C 13.7°F-10.2°C 84% 0.2 mph 0.3 kmh 3.4 mph5.5 kmh 30.01 in1016.3 mb 0.00 in0.0 mm 0.00 in/hr0.0 mm/hr 0.00 in0.0 mm
06:22 AM 17.8°F-7.9°C 13.7°F-10.2°C 84% Calm Calm 0.4 mph0.6 kmh 30.01 in1016.3 mb 0.00 in0.0 mm 0.00 in/hr0.0 mm/hr 0.00 in0.0 mm
06:27 AM 17.6°F-8.0°C 13.5°F-10.3°C 84% Calm Calm -- 30.01 in1016.3 mb 0.00 in0.0 mm 0.00 in/hr0.0 mm/hr 0.00 in0.0 mm
06:32 AM 17.6°F-8.0°C 13.5°F-10.3°C 84% Calm Calm -- 30.01 in1016.3 mb 0.00 in0.0 mm 0.00 in/hr0.0 mm/hr 0.00 in0.0 mm
06:37 AM 17.6°F-8.0°C 13.5°F-10.3°C 84% Calm Calm 0.2 mph0.3 kmh 30.02 in1016.6 mb 0.00 in0.0 mm 0.00 in/hr0.0 mm/hr 0.00 in0.0 mm
06:42 AM 17.8°F-7.9°C 13.7°F-10.2°C 84% Calm Calm 0.2 mph0.3 kmh 30.03 in1016.9 mb 0.00 in0.0 mm 0.00 in/hr0.0 mm/hr 0.00 in0.0 mm
06:47 AM 18.0°F-7.8°C 13.9°F-10.1°C 84% Calm Calm -- 30.03 in1016.9 mb 0.00 in0.0 mm 0.00 in/hr0.0 mm/hr 0.00 in0.0 mm
06:52 AM 18.0°F-7.8°C 13.9°F-10.1°C 84% 0.4 mph SE0.6 kmh SE 1.3 mph2.1 kmh 30.03 in1016.9 mb 0.00 in0.0 mm 0.00 in/hr0.0 mm/hr 0.00 in0.0 mm
06:57 AM 17.8°F-7.9°C 13.7°F-10.2°C 84% Calm Calm 1.3 mph2.1 kmh 30.03 in1016.9 mb 0.00 in0.0 mm 0.00 in/hr0.0 mm/hr 0.00 in0.0 mm
07:03 AM 17.6°F-8.0°C 13.5°F-10.3°C 84% Calm Calm -- 30.03 in1016.9 mb 0.00 in0.0 mm 0.00 in/hr0.0 mm/hr 0.00 in0.0 mm
07:08 AM 17.3°F-8.2°C 13.1°F-10.5°C 84% Calm Calm 0.2 mph0.3 kmh 30.04 in1017.3 mb 0.00 in0.0 mm 0.00 in/hr0.0 mm/hr 0.00 in0.0 mm
07:13 AM 17.5°F-8.1°C 13.3°F-10.4°C 84% Calm Calm 0.2 mph0.3 kmh 30.04 in1017.3 mb 0.00 in0.0 mm 0.00 in/hr0.0 mm/hr 0.00 in0.0 mm
07:18 AM 17.6°F-8.0°C 13.8°F-10.1°C 85% Calm Calm -- 30.03 in1016.9 mb 0.00 in0.0 mm 0.00 in/hr0.0 mm/hr 0.00 in0.0 mm
07:23 AM 18.2°F-7.7°C 14.3°F-9.8°C 85% Calm Calm -- 30.04 in1017.3 mb 0.00 in0.0 mm 0.00 in/hr0.0 mm/hr 0.00 in0.0 mm
07:27 AM 18.4°F-7.6°C 14.5°F-9.7°C 85% 0.2 mph E0.3 kmh E 0.2 mph0.3 kmh 30.04 in1017.3 mb 0.00 in0.0 mm 0.00 in/hr0.0 mm/hr 0.00 in0.0 mm
07:32 AM 18.9°F-7.3°C 15.3°F-9.3°C 86% 0.4 mph E0.6 kmh E 0.4 mph0.6 kmh 30.04 in1017.3 mb 0.00 in0.0 mm 0.00 in/hr0.0 mm/hr 0.00 in0.0 mm
07:37 AM 19.3°F-7.1°C 15.7°F-9.1°C 86% Calm Calm 0.4 mph0.6 kmh 30.04 in1017.3 mb 0.00 in0.0 mm 0.00 in/hr0.0 mm/hr 0.00 in0.0 mm
07:42 AM 19.8°F-6.8°C 16.2°F-8.8°C 86% Calm Calm -- 30.04 in1017.3 mb 0.00 in0.0 mm 0.00 in/hr0.0 mm/hr 0.00 in0.0 mm
07:47 AM 20.5°F-6.4°C 16.9°F-8.4°C 86% Calm Calm -- 30.04 in1017.3 mb 0.00 in0.0 mm 0.00 in/hr0.0 mm/hr 0.00 in0.0 mm
07:52 AM 21.2°F-6.0°C 17.6°F-8.0°C 86% 1.1 mph E1.8 kmh E 1.1 mph1.8 kmh 30.04 in1017.3 mb 0.00 in0.0 mm 0.00 in/hr0.0 mm/hr 0.00 in0.0 mm
07:57 AM 22.0°F-5.6°C 18.4°F-7.6°C 86% 0.2 mph ESE0.3 kmh ESE 1.1 mph1.8 kmh 30.05 in1017.6 mb 0.00 in0.0 mm 0.00 in/hr0.0 mm/hr 0.00 in0.0 mm
08:03 AM 23.0°F-5.0°C 20.0°F-6.7°C 88% 3.2 mph NE5.1 kmh NE 3.4 mph5.5 kmh 30.04 in1017.3 mb 0.00 in0.0 mm 0.00 in/hr0.0 mm/hr 0.00 in0.0 mm
08:08 AM 24.1°F-4.4°C 20.8°F-6.2°C 87% 2.5 mph E4.0 kmh E 3.4 mph5.5 kmh 30.04 in1017.3 mb 0.00 in0.0 mm 0.00 in/hr0.0 mm/hr 0.00 in0.0 mm
08:13 AM 24.8°F-4.0°C 21.5°F-5.8°C 87% 0.9 mph NE1.4 kmh NE 3.4 mph5.5 kmh 30.05 in1017.6 mb 0.00 in0.0 mm 0.00 in/hr0.0 mm/hr 0.00 in0.0 mm
08:18 AM 25.6°F-3.6°C 22.2°F-5.4°C 87% 0.4 mph NE0.6 kmh NE 3.4 mph5.5 kmh 30.05 in1017.6 mb 0.00 in0.0 mm 0.00 in/hr0.0 mm/hr 0.00 in0.0 mm
08:23 AM 26.1°F-3.3°C 22.8°F-5.1°C 87% 0.9 mph E1.4 kmh E 2.7 mph4.3 kmh 30.05 in1017.6 mb 0.00 in0.0 mm 0.00 in/hr0.0 mm/hr 0.00 in0.0 mm
08:28 AM 27.0°F-2.8°C 23.6°F-4.7°C 87% Calm Calm 1.6 mph2.6 kmh 30.05 in1017.6 mb 0.00 in0.0 mm 0.00 in/hr0.0 mm/hr 0.00 in0.0 mm
08:33 AM 27.5°F-2.5°C 24.1°F-4.4°C 87% 2.2 mph NE3.5 kmh NE 2.9 mph4.7 kmh 30.05 in1017.6 mb 0.00 in0.0 mm 0.00 in/hr0.0 mm/hr 0.00 in0.0 mm
08:38 AM 28.1°F-2.2°C 24.7°F-4.1°C 87% 2.7 mph NE4.3 kmh NE 3.4 mph5.5 kmh 30.05 in1017.6 mb 0.00 in0.0 mm 0.00 in/hr0.0 mm/hr 0.00 in0.0 mm
08:43 AM 28.4°F-2.0°C 24.8°F-4.0°C 86% 0.8 mph NE1.3 kmh NE 3.4 mph5.5 kmh 30.05 in1017.6 mb 0.00 in0.0 mm 0.00 in/hr0.0 mm/hr 0.00 in0.0 mm
08:48 AM 29.0°F-1.7°C 25.6°F-3.6°C 87% 2.4 mph E3.9 kmh E 3.4 mph5.5 kmh 30.05 in1017.6 mb 0.00 in0.0 mm 0.00 in/hr0.0 mm/hr 0.00 in0.0 mm
08:52 AM 29.3°F-1.5°C 25.9°F-3.4°C 87% 2.5 mph E4.0 kmh E 4.0 mph6.4 kmh 30.05 in1017.6 mb 0.00 in0.0 mm 0.00 in/hr0.0 mm/hr 0.00 in0.0 mm
08:57 AM 30.1°F-1.1°C 26.6°F-3.0°C 87% 0.7 mph NE1.1 kmh NE 4.0 mph6.4 kmh 30.05 in1017.6 mb 0.00 in0.0 mm 0.00 in/hr0.0 mm/hr 0.00 in0.0 mm
09:03 AM 30.6°F-0.8°C 27.6°F-2.4°C 88% 0.2 mph SE0.3 kmh SE 1.8 mph2.9 kmh 30.05 in1017.6 mb 0.00 in0.0 mm 0.00 in/hr0.0 mm/hr 0.00 in0.0 mm
09:08 AM 31.1°F-0.5°C 27.7°F-2.4°C 87% 0.2 mph NE0.3 kmh NE 2.2 mph3.5 kmh 30.05 in1017.6 mb 0.00 in0.0 mm 0.00 in/hr0.0 mm/hr 0.00 in0.0 mm
09:13 AM 31.7°F-0.2°C 28.3°F-2.1°C 87% 0.6 mph E1.0 kmh E 2.2 mph3.5 kmh 30.05 in1017.6 mb 0.00 in0.0 mm 0.00 in/hr0.0 mm/hr 0.00 in0.0 mm
09:18 AM 32.4°F0.2°C 29.0°F-1.7°C 87% 1.1 mph NE1.8 kmh NE 1.8 mph2.9 kmh 30.05 in1017.6 mb 0.00 in0.0 mm 0.00 in/hr0.0 mm/hr 0.00 in0.0 mm
09:23 AM 32.9°F0.5°C 29.2°F-1.6°C 86% 0.9 mph NE1.4 kmh NE 2.7 mph4.3 kmh 30.05 in1017.6 mb 0.00 in0.0 mm 0.00 in/hr0.0 mm/hr 0.00 in0.0 mm
09:28 AM 33.5°F0.8°C 29.7°F-1.3°C 86% 0.4 mph 0.6 kmh 2.7 mph4.3 kmh 30.05 in1017.6 mb 0.00 in0.0 mm 0.00 in/hr0.0 mm/hr 0.00 in0.0 mm
09:33 AM 34.4°F1.3°C 30.2°F-1.0°C 85% 0.3 mph ESE0.5 kmh ESE 1.6 mph2.6 kmh 30.04 in1017.3 mb 0.00 in0.0 mm 0.00 in/hr0.0 mm/hr 0.00 in0.0 mm
09:38 AM 35.1°F1.7°C 31.0°F-0.6°C 85% Calm Calm 0.4 mph0.6 kmh 30.04 in1017.3 mb 0.00 in0.0 mm 0.00 in/hr0.0 mm/hr 0.00 in0.0 mm
09:43 AM 35.8°F2.1°C 31.7°F-0.2°C 85% 0.2 mph S0.3 kmh S 0.2 mph0.3 kmh 30.04 in1017.3 mb 0.00 in0.0 mm 0.00 in/hr0.0 mm/hr 0.00 in0.0 mm
09:48 AM 36.4°F2.4°C 32.0°F0.0°C 84% 1.0 mph NNW1.6 kmh NNW 1.8 mph2.9 kmh 30.04 in1017.3 mb 0.00 in0.0 mm 0.00 in/hr0.0 mm/hr 0.00 in0.0 mm
09:53 AM 36.7°F2.6°C 32.1°F0.1°C 83% 0.3 mph W0.5 kmh W 1.8 mph2.9 kmh 30.04 in1017.3 mb 0.00 in0.0 mm 0.00 in/hr0.0 mm/hr 0.00 in0.0 mm
09:58 AM 37.3°F2.9°C 32.2°F0.1°C 82% 0.2 mph NW0.3 kmh NW 1.8 mph2.9 kmh 30.04 in1017.3 mb 0.00 in0.0 mm 0.00 in/hr0.0 mm/hr 0.00 in0.0 mm
10:03 AM 37.4°F3.0°C 31.9°F-0.1°C 80% 0.7 mph WNW1.1 kmh WNW 1.3 mph2.1 kmh 30.04 in1017.3 mb 0.00 in0.0 mm 0.00 in/hr0.0 mm/hr 0.00 in0.0 mm
10:08 AM 38.0°F3.3°C 32.4°F0.2°C 80% Calm Calm 1.3 mph2.1 kmh 30.04 in1017.3 mb 0.00 in0.0 mm 0.00 in/hr0.0 mm/hr 0.00 in0.0 mm
10:13 AM 38.7°F3.7°C 32.8°F0.4°C 79% 1.3 mph NNW2.1 kmh NNW 1.3 mph2.1 kmh 30.04 in1017.3 mb 0.00 in0.0 mm 0.00 in/hr0.0 mm/hr 0.00 in0.0 mm
10:18 AM 39.2°F4.0°C 33.3°F0.7°C 79% 0.2 mph NNW0.3 kmh NNW 1.3 mph2.1 kmh 30.03 in1016.9 mb 0.00 in0.0 mm 0.00 in/hr0.0 mm/hr 0.00 in0.0 mm
10:23 AM 40.0°F4.4°C 33.7°F0.9°C 78% 0.3 mph S0.5 kmh S 1.1 mph1.8 kmh 30.03 in1016.9 mb 0.00 in0.0 mm 0.00 in/hr0.0 mm/hr 0.00 in0.0 mm
10:28 AM 40.9°F4.9°C 34.5°F1.4°C 78% 0.7 mph SSW1.1 kmh SSW 1.1 mph1.8 kmh 30.03 in1016.9 mb 0.00 in0.0 mm 0.00 in/hr0.0 mm/hr 0.00 in0.0 mm
10:33 AM 41.4°F5.2°C 34.7°F1.5°C 77% 1.9 mph SW3.1 kmh SW 2.0 mph3.2 kmh 30.03 in1016.9 mb 0.00 in0.0 mm 0.00 in/hr0.0 mm/hr 0.00 in0.0 mm
10:38 AM 41.6°F5.3°C 34.2°F1.2°C 75% 0.3 mph WSW0.5 kmh WSW 2.5 mph4.0 kmh 30.03 in1016.9 mb 0.00 in0.0 mm 0.00 in/hr0.0 mm/hr 0.00 in0.0 mm
10:43 AM 42.1°F5.6°C 34.4°F1.3°C 74% 0.3 mph WSW0.5 kmh WSW 2.5 mph4.0 kmh 30.03 in1016.9 mb 0.00 in0.0 mm 0.00 in/hr0.0 mm/hr 0.00 in0.0 mm
10:48 AM 42.5°F5.8°C 34.5°F1.4°C 73% 0.2 mph SW0.3 kmh SW 1.6 mph2.6 kmh 30.02 in1016.6 mb 0.00 in0.0 mm 0.00 in/hr0.0 mm/hr 0.00 in0.0 mm
10:53 AM 43.2°F6.2°C 34.8°F1.6°C 72% 0.2 mph SSW0.3 kmh SSW 1.1 mph1.8 kmh 30.02 in1016.6 mb 0.00 in0.0 mm 0.00 in/hr0.0 mm/hr 0.00 in0.0 mm
10:58 AM 44.3°F6.8°C 35.8°F2.1°C 72% 0.4 mph SE0.6 kmh SE 0.7 mph1.1 kmh 30.02 in1016.6 mb 0.00 in0.0 mm 0.00 in/hr0.0 mm/hr 0.00 in0.0 mm
11:04 AM 45.2°F7.3°C 36.4°F2.4°C 71% 1.2 mph SE1.9 kmh SE 1.3 mph2.1 kmh 30.01 in1016.3 mb 0.00 in0.0 mm 0.00 in/hr0.0 mm/hr 0.00 in0.0 mm
11:09 AM 45.7°F7.6°C 36.5°F2.5°C 70% Calm Calm 1.3 mph2.1 kmh 30.02 in1016.6 mb 0.00 in0.0 mm 0.00 in/hr0.0 mm/hr 0.00 in0.0 mm
11:14 AM 46.3°F7.9°C 36.7°F2.6°C 69% 1.1 mph WSW1.8 kmh WSW 1.6 mph2.6 kmh 30.01 in1016.3 mb 0.00 in0.0 mm 0.00 in/hr0.0 mm/hr 0.00 in0.0 mm
11:19 AM 46.8°F8.2°C 36.5°F2.5°C 67% 1.9 mph SSE3.1 kmh SSE 4.0 mph6.4 kmh 30.01 in1016.3 mb 0.00 in0.0 mm 0.00 in/hr0.0 mm/hr 0.00 in0.0 mm
11:23 AM 47.3°F8.5°C 36.9°F2.7°C 67% 7.2 mph SW11.6 kmh SW 8.1 mph13.0 kmh 30.01 in1016.3 mb 0.00 in0.0 mm 0.00 in/hr0.0 mm/hr 0.00 in0.0 mm
11:28 AM 47.7°F8.7°C 36.5°F2.5°C 65% 4.1 mph SW6.6 kmh SW 8.1 mph13.0 kmh 30.01 in1016.3 mb 0.00 in0.0 mm 0.00 in/hr0.0 mm/hr 0.00 in0.0 mm
11:33 AM 48.2°F9.0°C 36.6°F2.6°C 64% 3.0 mph SE4.8 kmh SE 6.7 mph10.8 kmh 30.01 in1016.3 mb 0.00 in0.0 mm 0.00 in/hr0.0 mm/hr 0.00 in0.0 mm
11:38 AM 48.8°F9.3°C 36.7°F2.6°C 63% 4.1 mph SSE6.6 kmh SSE 4.7 mph7.6 kmh 30.00 in1015.9 mb 0.00 in0.0 mm 0.00 in/hr0.0 mm/hr 0.00 in0.0 mm
11:43 AM 49.3°F9.6°C 36.8°F2.7°C 62% 4.9 mph S7.9 kmh S 6.7 mph10.8 kmh 30.00 in1015.9 mb 0.00 in0.0 mm 0.00 in/hr0.0 mm/hr 0.00 in0.0 mm
11:48 AM 49.5°F9.7°C 36.6°F2.6°C 61% 4.9 mph WSW7.9 kmh WSW 8.9 mph14.3 kmh 30.00 in1015.9 mb 0.00 in0.0 mm 0.00 in/hr0.0 mm/hr 0.00 in0.0 mm
11:53 AM 50.0°F10.0°C 36.7°F2.6°C 60% 7.1 mph SW11.4 kmh SW 8.9 mph14.3 kmh 30.00 in1015.9 mb 0.00 in0.0 mm 0.00 in/hr0.0 mm/hr 0.00 in0.0 mm
11:58 AM 49.9°F9.9°C 35.2°F1.8°C 57% 4.9 mph SW7.9 kmh SW 8.9 mph14.3 kmh 30.00 in1015.9 mb 0.00 in0.0 mm 0.00 in/hr0.0 mm/hr 0.00 in0.0 mm
12:04 PM 50.0°F10.0°C 35.4°F1.9°C 57% 6.3 mph SW10.1 kmh SW 8.5 mph13.7 kmh 30.00 in1015.9 mb 0.00 in0.0 mm 0.00 in/hr0.0 mm/hr 0.00 in0.0 mm
12:09 PM 50.4°F10.2°C 35.3°F1.8°C 56% 4.1 mph SW6.6 kmh SW 8.5 mph13.7 kmh 30.00 in1015.9 mb 0.00 in0.0 mm 0.00 in/hr0.0 mm/hr 0.00 in0.0 mm
12:14 PM 50.8°F10.4°C 34.7°F1.5°C 54% 7.5 mph SW12.1 kmh SW 8.5 mph13.7 kmh 30.00 in1015.9 mb 0.00 in0.0 mm 0.00 in/hr0.0 mm/hr 0.00 in0.0 mm
12:19 PM 50.9°F10.5°C 33.9°F1.1°C 52% 7.4 mph SW11.9 kmh SW 8.5 mph13.7 kmh 29.99 in1015.6 mb 0.00 in0.0 mm 0.00 in/hr0.0 mm/hr 0.00 in0.0 mm
12:24 PM 50.9°F10.5°C 33.9°F1.1°C 52% 8.4 mph WSW13.5 kmh WSW 9.8 mph15.8 kmh 29.99 in1015.6 mb 0.00 in0.0 mm 0.00 in/hr0.0 mm/hr 0.00 in0.0 mm
12:29 PM 50.8°F10.4°C 33.3°F0.7°C 51% 7.5 mph SW12.1 kmh SW 9.8 mph15.8 kmh 29.99 in1015.6 mb 0.00 in0.0 mm 0.00 in/hr0.0 mm/hr 0.00 in0.0 mm
12:34 PM 50.9°F10.5°C 33.9°F1.1°C 52% 8.4 mph NW13.5 kmh NW 10.5 mph16.9 kmh 29.99 in1015.6 mb 0.00 in0.0 mm 0.00 in/hr0.0 mm/hr 0.00 in0.0 mm
12:39 PM 50.9°F10.5°C 33.5°F0.8°C 51% 7.7 mph SW12.4 kmh SW 12.1 mph19.5 kmh 29.99 in1015.6 mb 0.00 in0.0 mm 0.00 in/hr0.0 mm/hr 0.00 in0.0 mm
12:44 PM 50.9°F10.5°C 33.0°F0.6°C 50% 6.7 mph SW10.8 kmh SW 12.1 mph19.5 kmh 29.99 in1015.6 mb 0.00 in0.0 mm 0.00 in/hr0.0 mm/hr 0.00 in0.0 mm
12:49 PM 51.1°F10.6°C 32.7°F0.4°C 49% 7.6 mph SW12.2 kmh SW 10.7 mph17.2 kmh 29.99 in1015.6 mb 0.00 in0.0 mm 0.00 in/hr0.0 mm/hr 0.00 in0.0 mm
12:53 PM 51.1°F10.6°C 31.5°F-0.3°C 47% 10.2 mph SW16.4 kmh SW 10.7 mph17.2 kmh 29.99 in1015.6 mb 0.00 in0.0 mm 0.00 in/hr0.0 mm/hr 0.00 in0.0 mm
12:58 PM 51.1°F10.6°C 31.5°F-0.3°C 47% 8.8 mph SW14.2 kmh SW 12.1 mph19.5 kmh 29.99 in1015.6 mb 0.00 in0.0 mm 0.00 in/hr0.0 mm/hr 0.00 in0.0 mm
01:04 PM 51.1°F10.6°C 31.5°F-0.3°C 47% 7.9 mph SW12.7 kmh SW 12.1 mph19.5 kmh 29.99 in1015.6 mb 0.00 in0.0 mm 0.00 in/hr0.0 mm/hr 0.00 in0.0 mm
01:09 PM 51.5°F10.8°C 31.9°F-0.1°C 47% 8.1 mph SW13.0 kmh SW 11.9 mph19.2 kmh 29.99 in1015.6 mb 0.00 in0.0 mm 0.00 in/hr0.0 mm/hr 0.00 in0.0 mm
01:14 PM 51.5°F10.8°C 31.9°F-0.1°C 47% 10.1 mph S16.3 kmh S 12.1 mph19.5 kmh 29.98 in1015.2 mb 0.00 in0.0 mm 0.00 in/hr0.0 mm/hr 0.00 in0.0 mm
01:19 PM 51.5°F10.8°C 31.9°F-0.1°C 47% 7.9 mph S12.7 kmh S 12.1 mph19.5 kmh 29.98 in1015.2 mb 0.00 in0.0 mm 0.00 in/hr0.0 mm/hr 0.00 in0.0 mm
01:24 PM 51.5°F10.8°C 32.4°F0.2°C 48% 8.9 mph S14.3 kmh S 11.0 mph17.7 kmh 29.98 in1015.2 mb 0.00 in0.0 mm 0.00 in/hr0.0 mm/hr 0.00 in0.0 mm
01:29 PM 51.5°F10.8°C 32.4°F0.2°C 48% 9.3 mph SSW15.0 kmh SSW 11.6 mph18.7 kmh 29.98 in1015.2 mb 0.00 in0.0 mm 0.00 in/hr0.0 mm/hr 0.00 in0.0 mm
01:34 PM 51.5°F10.8°C 32.9°F0.5°C 49% 7.8 mph WSW12.6 kmh WSW 11.6 mph18.7 kmh 29.98 in1015.2 mb 0.00 in0.0 mm 0.00 in/hr0.0 mm/hr 0.00 in0.0 mm
01:39 PM 51.5°F10.8°C 32.4°F0.2°C 48% 9.4 mph SSW15.1 kmh SSW 9.8 mph15.8 kmh 29.98 in1015.2 mb 0.00 in0.0 mm 0.00 in/hr0.0 mm/hr 0.00 in0.0 mm
01:44 PM 51.7°F10.9°C 32.6°F0.3°C 48% 8.9 mph SW14.3 kmh SW 10.1 mph16.3 kmh 29.98 in1015.2 mb 0.00 in0.0 mm 0.00 in/hr0.0 mm/hr 0.00 in0.0 mm
01:49 PM 51.5°F10.8°C 32.4°F0.2°C 48% 8.6 mph SW13.8 kmh SW 10.5 mph16.9 kmh 29.98 in1015.2 mb 0.00 in0.0 mm 0.00 in/hr0.0 mm/hr 0.00 in0.0 mm
01:54 PM 51.1°F10.6°C 31.5°F-0.3°C 47% 8.5 mph SW13.7 kmh SW 10.5 mph16.9 kmh 29.98 in1015.2 mb 0.00 in0.0 mm 0.00 in/hr0.0 mm/hr 0.00 in0.0 mm
01:59 PM 50.8°F10.4°C 31.8°F-0.1°C 48% 6.9 mph SSW11.1 kmh SSW 9.2 mph14.8 kmh 29.98 in1015.2 mb 0.00 in0.0 mm 0.00 in/hr0.0 mm/hr 0.00 in0.0 mm
02:04 PM 50.8°F10.4°C 31.2°F-0.4°C 47% 10.6 mph SW17.1 kmh SW 12.1 mph19.5 kmh 29.98 in1015.2 mb 0.00 in0.0 mm 0.00 in/hr0.0 mm/hr 0.00 in0.0 mm
02:09 PM 50.4°F10.2°C 30.9°F-0.6°C 47% 8.6 mph SW13.8 kmh SW 12.1 mph19.5 kmh 29.98 in1015.2 mb 0.00 in0.0 mm 0.00 in/hr0.0 mm/hr 0.00 in0.0 mm
02:14 PM 50.0°F10.0°C 30.0°F-1.1°C 46% 10.1 mph S16.3 kmh S 12.1 mph19.5 kmh 29.98 in1015.2 mb 0.00 in0.0 mm 0.00 in/hr0.0 mm/hr 0.00 in0.0 mm
02:19 PM 49.9°F9.9°C 30.3°F-0.9°C 47% 8.3 mph SW13.4 kmh SW 12.1 mph19.5 kmh 29.98 in1015.2 mb 0.00 in0.0 mm 0.00 in/hr0.0 mm/hr 0.00 in0.0 mm
02:24 PM 49.3°F9.6°C 29.9°F-1.2°C 47% 8.9 mph SW14.3 kmh SW 11.2 mph18.0 kmh 29.98 in1015.2 mb 0.00 in0.0 mm 0.00 in/hr0.0 mm/hr 0.00 in0.0 mm
02:29 PM 49.1°F9.5°C 29.7°F-1.3°C 47% 6.9 mph SW11.1 kmh SW 11.9 mph19.2 kmh 29.98 in1015.2 mb 0.00 in0.0 mm 0.00 in/hr0.0 mm/hr 0.00 in0.0 mm
02:34 PM 49.0°F9.4°C 29.5°F-1.4°C 47% 10.8 mph SW17.4 kmh SW 11.9 mph19.2 kmh 29.99 in1015.6 mb 0.00 in0.0 mm 0.00 in/hr0.0 mm/hr 0.00 in0.0 mm
02:39 PM 49.0°F9.4°C 30.1°F-1.1°C 48% 8.4 mph SW13.5 kmh SW 11.6 mph18.7 kmh 29.99 in1015.6 mb 0.00 in0.0 mm 0.00 in/hr0.0 mm/hr 0.00 in0.0 mm
02:44 PM 49.0°F9.4°C 29.5°F-1.4°C 47% 9.4 mph WSW15.1 kmh WSW 11.0 mph17.7 kmh 29.99 in1015.6 mb 0.00 in0.0 mm 0.00 in/hr0.0 mm/hr 0.00 in0.0 mm
02:49 PM 48.8°F9.3°C 29.4°F-1.4°C 47% 7.5 mph SW12.1 kmh SW 11.0 mph17.7 kmh 29.99 in1015.6 mb 0.00 in0.0 mm 0.00 in/hr0.0 mm/hr 0.00 in0.0 mm
02:54 PM 48.8°F9.3°C 28.8°F-1.8°C 46% 9.8 mph SW15.8 kmh SW 11.9 mph19.2 kmh 29.99 in1015.6 mb 0.00 in0.0 mm 0.00 in/hr0.0 mm/hr 0.00 in0.0 mm
03:00 PM 48.8°F9.3°C 28.8°F-1.8°C 46% 8.1 mph SW13.0 kmh SW 11.9 mph19.2 kmh 29.99 in1015.6 mb 0.00 in0.0 mm 0.00 in/hr0.0 mm/hr 0.00 in0.0 mm
03:04 PM 49.0°F9.4°C 29.0°F-1.7°C 46% 9.5 mph SW15.3 kmh SW 10.5 mph16.9 kmh 29.99 in1015.6 mb 0.00 in0.0 mm 0.00 in/hr0.0 mm/hr 0.00 in0.0 mm
03:09 PM 49.0°F9.4°C 29.0°F-1.7°C 46% 10.6 mph SSW17.1 kmh SSW 11.0 mph17.7 kmh 29.99 in1015.6 mb 0.00 in0.0 mm 0.00 in/hr0.0 mm/hr 0.00 in0.0 mm
03:14 PM 48.8°F9.3°C 28.8°F-1.8°C 46% 7.1 mph SW11.4 kmh SW 11.0 mph17.7 kmh 29.99 in1015.6 mb 0.00 in0.0 mm 0.00 in/hr0.0 mm/hr 0.00 in0.0 mm
03:19 PM 48.6°F9.2°C 28.6°F-1.9°C 46% 7.9 mph SSW12.7 kmh SSW 10.3 mph16.6 kmh 29.99 in1015.6 mb 0.00 in0.0 mm 0.00 in/hr0.0 mm/hr 0.00 in0.0 mm
03:24 PM 48.2°F9.0°C 28.8°F-1.8°C 47% 6.4 mph SW10.3 kmh SW 8.9 mph14.3 kmh 29.99 in1015.6 mb 0.00 in0.0 mm 0.00 in/hr0.0 mm/hr 0.00 in0.0 mm
03:29 PM 48.1°F8.9°C 29.2°F-1.6°C 48% 6.1 mph SW9.8 kmh SW 8.5 mph13.7 kmh 29.99 in1015.6 mb 0.00 in0.0 mm 0.00 in/hr0.0 mm/hr 0.00 in0.0 mm
03:34 PM 47.9°F8.8°C 29.0°F-1.7°C 48% 7.7 mph WSW12.4 kmh WSW 9.2 mph14.8 kmh 29.99 in1015.6 mb 0.00 in0.0 mm 0.00 in/hr0.0 mm/hr 0.00 in0.0 mm
03:39 PM 47.3°F8.5°C 29.1°F-1.6°C 49% 7.3 mph SW11.7 kmh SW 9.2 mph14.8 kmh 29.99 in1015.6 mb 0.00 in0.0 mm 0.00 in/hr0.0 mm/hr 0.00 in0.0 mm
03:44 PM 47.0°F8.3°C 28.7°F-1.8°C 49% 6.2 mph SW10.0 kmh SW 8.5 mph13.7 kmh 29.99 in1015.6 mb 0.00 in0.0 mm 0.00 in/hr0.0 mm/hr 0.00 in0.0 mm
03:49 PM 46.6°F8.1°C 29.0°F-1.7°C 50% 7.1 mph SW11.4 kmh SW 8.3 mph13.4 kmh 29.99 in1015.6 mb 0.00 in0.0 mm 0.00 in/hr0.0 mm/hr 0.00 in0.0 mm
03:54 PM 46.3°F7.9°C 28.6°F-1.9°C 50% 7.3 mph SW11.7 kmh SW 8.3 mph13.4 kmh 29.99 in1015.6 mb 0.00 in0.0 mm 0.00 in/hr0.0 mm/hr 0.00 in0.0 mm
04:00 PM 45.7°F7.6°C 28.6°F-1.9°C 51% 3.7 mph SSW6.0 kmh SSW 7.8 mph12.6 kmh 29.99 in1015.6 mb 0.00 in0.0 mm 0.00 in/hr0.0 mm/hr 0.00 in0.0 mm
04:05 PM 45.5°F7.5°C 28.4°F-2.0°C 51% 3.1 mph SSW5.0 kmh SSW 5.6 mph9.0 kmh 29.99 in1015.6 mb 0.00 in0.0 mm 0.00 in/hr0.0 mm/hr 0.00 in0.0 mm
04:10 PM 45.0°F7.2°C 28.5°F-1.9°C 52% 1.9 mph S3.1 kmh S 4.9 mph7.9 kmh 29.99 in1015.6 mb 0.00 in0.0 mm 0.00 in/hr0.0 mm/hr 0.00 in0.0 mm
04:15 PM 44.8°F7.1°C 28.3°F-2.1°C 52% 1.9 mph S3.1 kmh S 2.7 mph4.3 kmh 29.98 in1015.2 mb 0.00 in0.0 mm 0.00 in/hr0.0 mm/hr 0.00 in0.0 mm
04:20 PM 44.3°F6.8°C 28.2°F-2.1°C 53% 0.4 mph S0.6 kmh S 2.7 mph4.3 kmh 29.98 in1015.2 mb 0.00 in0.0 mm 0.00 in/hr0.0 mm/hr 0.00 in0.0 mm
04:25 PM 43.9°F6.6°C 27.9°F-2.3°C 53% 0.3 mph SSW0.5 kmh SSW 0.4 mph0.6 kmh 29.98 in1015.2 mb 0.00 in0.0 mm 0.00 in/hr0.0 mm/hr 0.00 in0.0 mm
04:30 PM 43.7°F6.5°C 27.7°F-2.4°C 53% Calm Calm 0.4 mph0.6 kmh 29.98 in1015.2 mb 0.00 in0.0 mm 0.00 in/hr0.0 mm/hr 0.00 in0.0 mm
04:35 PM 43.4°F6.3°C 27.4°F-2.6°C 53% Calm Calm 0.2 mph0.3 kmh 29.98 in1015.2 mb 0.00 in0.0 mm 0.00 in/hr0.0 mm/hr 0.00 in0.0 mm
04:40 PM 42.8°F6.0°C 26.8°F-2.9°C 53% Calm Calm -- 29.99 in1015.6 mb 0.00 in0.0 mm 0.00 in/hr0.0 mm/hr 0.00 in0.0 mm
04:45 PM 42.7°F5.9°C 27.1°F-2.7°C 54% Calm Calm -- 29.99 in1015.6 mb 0.00 in0.0 mm 0.00 in/hr0.0 mm/hr 0.00 in0.0 mm
04:49 PM 42.3°F5.7°C 26.7°F-2.9°C 54% Calm Calm -- 29.99 in1015.6 mb 0.00 in0.0 mm 0.00 in/hr0.0 mm/hr 0.00 in0.0 mm
04:54 PM 41.9°F5.5°C 26.9°F-2.8°C 55% Calm Calm -- 29.99 in1015.6 mb 0.00 in0.0 mm 0.00 in/hr0.0 mm/hr 0.00 in0.0 mm
05:00 PM 41.8°F5.4°C 26.7°F-2.9°C 55% Calm Calm -- 29.99 in1015.6 mb 0.00 in0.0 mm 0.00 in/hr0.0 mm/hr 0.00 in0.0 mm
05:05 PM 41.4°F5.2°C 26.4°F-3.1°C 55% 0.2 mph WSW0.3 kmh WSW 0.2 mph0.3 kmh 29.99 in1015.6 mb 0.00 in0.0 mm 0.00 in/hr0.0 mm/hr 0.00 in0.0 mm
05:10 PM 41.2°F5.1°C 26.7°F-2.9°C 56% Calm Calm 0.2 mph0.3 kmh 29.99 in1015.6 mb 0.00 in0.0 mm 0.00 in/hr0.0 mm/hr 0.00 in0.0 mm
05:15 PM 40.9°F4.9°C 26.3°F-3.2°C 56% Calm Calm -- 29.99 in1015.6 mb 0.00 in0.0 mm 0.00 in/hr0.0 mm/hr 0.00 in0.0 mm
05:20 PM 40.7°F4.8°C 26.6°F-3.0°C 57% Calm Calm 0.2 mph0.3 kmh 29.99 in1015.6 mb 0.00 in0.0 mm 0.00 in/hr0.0 mm/hr 0.00 in0.0 mm
05:25 PM 40.3°F4.6°C 26.6°F-3.0°C 58% Calm Calm 0.2 mph0.3 kmh 29.99 in1015.6 mb 0.00 in0.0 mm 0.00 in/hr0.0 mm/hr 0.00 in0.0 mm
05:30 PM 40.0°F4.4°C 26.3°F-3.2°C 58% 0.8 mph E1.3 kmh E 2.0 mph3.2 kmh 29.99 in1015.6 mb 0.00 in0.0 mm 0.00 in/hr0.0 mm/hr 0.00 in0.0 mm
05:35 PM 39.8°F4.3°C 26.6°F-3.0°C 59% Calm Calm 2.0 mph3.2 kmh 29.99 in1015.6 mb 0.00 in0.0 mm 0.00 in/hr0.0 mm/hr 0.00 in0.0 mm
05:40 PM 39.6°F4.2°C 26.4°F-3.1°C 59% Calm Calm 0.4 mph0.6 kmh 29.99 in1015.6 mb 0.00 in0.0 mm 0.00 in/hr0.0 mm/hr 0.00 in0.0 mm
05:45 PM 39.4°F4.1°C 26.2°F-3.2°C 59% 0.4 mph S0.6 kmh S 0.4 mph0.6 kmh 29.99 in1015.6 mb 0.00 in0.0 mm 0.00 in/hr0.0 mm/hr 0.00 in0.0 mm
05:50 PM 39.2°F4.0°C 26.5°F-3.1°C 60% Calm Calm 0.4 mph0.6 kmh 29.99 in1015.6 mb 0.00 in0.0 mm 0.00 in/hr0.0 mm/hr 0.00 in0.0 mm
05:55 PM 39.2°F4.0°C 26.5°F-3.1°C 60% Calm Calm 0.4 mph0.6 kmh 30.00 in1015.9 mb 0.00 in0.0 mm 0.00 in/hr0.0 mm/hr 0.00 in0.0 mm
06:00 PM 39.1°F3.9°C 26.6°F-3.0°C 61% Calm Calm -- 30.00 in1015.9 mb 0.00 in0.0 mm 0.00 in/hr0.0 mm/hr 0.00 in0.0 mm
06:05 PM 39.1°F3.9°C 26.6°F-3.0°C 61% Calm Calm -- 29.99 in1015.6 mb 0.00 in0.0 mm 0.00 in/hr0.0 mm/hr 0.00 in0.0 mm
06:10 PM 39.1°F3.9°C 26.6°F-3.0°C 61% Calm Calm -- 29.99 in1015.6 mb 0.00 in0.0 mm 0.00 in/hr0.0 mm/hr 0.00 in0.0 mm
06:15 PM 38.9°F3.8°C 26.6°F-3.0°C 61% Calm Calm -- 29.99 in1015.6 mb 0.00 in0.0 mm 0.00 in/hr0.0 mm/hr 0.00 in0.0 mm
06:20 PM 39.1°F3.9°C 26.6°F-3.0°C 61% 2.3 mph 3.7 kmh 2.7 mph4.3 kmh 29.99 in1015.6 mb 0.00 in0.0 mm 0.00 in/hr0.0 mm/hr 0.00 in0.0 mm
06:25 PM 38.9°F3.8°C 26.6°F-3.0°C 61% Calm Calm 2.7 mph4.3 kmh 29.99 in1015.6 mb 0.00 in0.0 mm 0.00 in/hr0.0 mm/hr 0.00 in0.0 mm
06:30 PM 38.9°F3.8°C 26.9°F-2.8°C 62% 0.2 mph SW0.3 kmh SW 1.1 mph1.8 kmh 29.99 in1015.6 mb 0.00 in0.0 mm 0.00 in/hr0.0 mm/hr 0.00 in0.0 mm
06:35 PM 38.9°F3.8°C 26.9°F-2.8°C 62% 0.4 mph SW0.6 kmh SW 0.4 mph0.6 kmh 29.99 in1015.6 mb 0.00 in0.0 mm 0.00 in/hr0.0 mm/hr 0.00 in0.0 mm
06:40 PM 38.7°F3.7°C 26.7°F-2.9°C 62% 0.2 mph SW0.3 kmh SW 0.4 mph0.6 kmh 29.99 in1015.6 mb 0.00 in0.0 mm 0.00 in/hr0.0 mm/hr 0.00 in0.0 mm
06:45 PM 38.5°F3.6°C 26.6°F-3.0°C 62% 0.3 mph S0.5 kmh S 0.4 mph0.6 kmh 29.99 in1015.6 mb 0.00 in0.0 mm 0.00 in/hr0.0 mm/hr 0.00 in0.0 mm
06:50 PM 38.5°F3.6°C 26.9°F-2.8°C 63% Calm Calm 0.4 mph0.6 kmh 29.99 in1015.6 mb 0.00 in0.0 mm 0.00 in/hr0.0 mm/hr 0.00 in0.0 mm
06:55 PM 38.3°F3.5°C 26.8°F-2.9°C 63% Calm Calm -- 29.99 in1015.6 mb 0.00 in0.0 mm 0.00 in/hr0.0 mm/hr 0.00 in0.0 mm
07:01 PM 38.5°F3.6°C 26.9°F-2.8°C 63% 0.2 mph ENE0.3 kmh ENE 0.2 mph0.3 kmh 29.99 in1015.6 mb 0.00 in0.0 mm 0.00 in/hr0.0 mm/hr 0.00 in0.0 mm
07:06 PM 38.5°F3.6°C 26.9°F-2.8°C 63% 0.4 mph NNE0.6 kmh NNE 0.7 mph1.1 kmh 30.00 in1015.9 mb 0.00 in0.0 mm 0.00 in/hr0.0 mm/hr 0.00 in0.0 mm
07:10 PM 38.7°F3.7°C 27.1°F-2.7°C 63% 0.4 mph 0.6 kmh 1.1 mph1.8 kmh 30.00 in1015.9 mb 0.00 in0.0 mm 0.00 in/hr0.0 mm/hr 0.00 in0.0 mm
07:15 PM 38.9°F3.8°C 27.3°F-2.6°C 63% 1.2 mph N1.9 kmh N 2.0 mph3.2 kmh 30.00 in1015.9 mb 0.00 in0.0 mm 0.00 in/hr0.0 mm/hr 0.00 in0.0 mm
07:20 PM 38.9°F3.8°C 27.3°F-2.6°C 63% 0.6 mph NNE1.0 kmh NNE 2.2 mph3.5 kmh 30.00 in1015.9 mb 0.00 in0.0 mm 0.00 in/hr0.0 mm/hr 0.00 in0.0 mm
07:25 PM 38.7°F3.7°C 27.1°F-2.7°C 63% 0.7 mph 1.1 kmh 2.2 mph3.5 kmh 30.00 in1015.9 mb 0.00 in0.0 mm 0.00 in/hr0.0 mm/hr 0.00 in0.0 mm
07:30 PM 38.5°F3.6°C 26.9°F-2.8°C 63% 0.3 mph NE0.5 kmh NE 1.1 mph1.8 kmh 30.00 in1015.9 mb 0.00 in0.0 mm 0.00 in/hr0.0 mm/hr 0.00 in0.0 mm
07:35 PM 38.5°F3.6°C 26.9°F-2.8°C 63% Calm Calm 0.9 mph1.4 kmh 30.00 in1015.9 mb 0.00 in0.0 mm 0.00 in/hr0.0 mm/hr 0.00 in0.0 mm
07:40 PM 38.5°F3.6°C 26.9°F-2.8°C 63% Calm Calm -- 30.00 in1015.9 mb 0.00 in0.0 mm 0.00 in/hr0.0 mm/hr 0.00 in0.0 mm
07:45 PM 38.5°F3.6°C 26.9°F-2.8°C 63% Calm Calm -- 30.00 in1015.9 mb 0.00 in0.0 mm 0.00 in/hr0.0 mm/hr 0.00 in0.0 mm
07:50 PM 38.3°F3.5°C 26.8°F-2.9°C 63% Calm Calm 0.2 mph0.3 kmh 30.00 in1015.9 mb 0.00 in0.0 mm 0.00 in/hr0.0 mm/hr 0.00 in0.0 mm
07:55 PM 38.3°F3.5°C 26.8°F-2.9°C 63% Calm Calm 0.2 mph0.3 kmh 30.00 in1015.9 mb 0.00 in0.0 mm 0.00 in/hr0.0 mm/hr 0.00 in0.0 mm
08:01 PM 38.2°F3.4°C 26.7°F-2.9°C 63% 0.4 mph NE0.6 kmh NE 0.4 mph0.6 kmh 30.00 in1015.9 mb 0.00 in0.0 mm 0.00 in/hr0.0 mm/hr 0.00 in0.0 mm
08:06 PM 38.2°F3.4°C 26.7°F-2.9°C 63% Calm Calm 0.4 mph0.6 kmh 30.00 in1015.9 mb 0.00 in0.0 mm 0.00 in/hr0.0 mm/hr 0.00 in0.0 mm
08:11 PM 38.3°F3.5°C 27.2°F-2.7°C 64% 0.4 mph SSW0.6 kmh SSW 0.9 mph1.4 kmh 30.00 in1015.9 mb 0.00 in0.0 mm 0.00 in/hr0.0 mm/hr 0.00 in0.0 mm
08:16 PM 38.5°F3.6°C 27.4°F-2.6°C 64% Calm Calm 0.9 mph1.4 kmh 30.00 in1015.9 mb 0.00 in0.0 mm 0.00 in/hr0.0 mm/hr 0.00 in0.0 mm
08:21 PM 38.5°F3.6°C 27.4°F-2.6°C 64% Calm Calm 0.2 mph0.3 kmh 30.00 in1015.9 mb 0.00 in0.0 mm 0.00 in/hr0.0 mm/hr 0.00 in0.0 mm
08:26 PM 38.5°F3.6°C 27.4°F-2.6°C 64% Calm Calm -- 30.00 in1015.9 mb 0.00 in0.0 mm 0.00 in/hr0.0 mm/hr 0.00 in0.0 mm
08:31 PM 38.5°F3.6°C 27.4°F-2.6°C 64% Calm Calm -- 30.00 in1015.9 mb 0.00 in0.0 mm 0.00 in/hr0.0 mm/hr 0.00 in0.0 mm
08:36 PM 38.9°F3.8°C 27.6°F-2.4°C 64% Calm Calm 0.4 mph0.6 kmh 30.00 in1015.9 mb 0.00 in0.0 mm 0.00 in/hr0.0 mm/hr 0.00 in0.0 mm
08:40 PM 39.1°F3.9°C 27.8°F-2.3°C 64% 0.9 mph SE1.4 kmh SE 4.0 mph6.4 kmh 30.00 in1015.9 mb 0.00 in0.0 mm 0.00 in/hr0.0 mm/hr 0.00 in0.0 mm
08:45 PM 39.2°F4.0°C 28.0°F-2.2°C 64% Calm Calm 4.0 mph6.4 kmh 30.00 in1015.9 mb 0.00 in0.0 mm 0.00 in/hr0.0 mm/hr 0.00 in0.0 mm
08:50 PM 39.4°F4.1°C 28.2°F-2.1°C 64% Calm Calm 0.4 mph0.6 kmh 30.00 in1015.9 mb 0.00 in0.0 mm 0.00 in/hr0.0 mm/hr 0.00 in0.0 mm
08:55 PM 39.6°F4.2°C 28.4°F-2.0°C 64% 0.4 mph SW0.6 kmh SW 1.8 mph2.9 kmh 30.00 in1015.9 mb 0.00 in0.0 mm 0.00 in/hr0.0 mm/hr 0.00 in0.0 mm
09:01 PM 40.0°F4.4°C 28.4°F-2.0°C 63% 1.4 mph SW2.3 kmh SW 4.0 mph6.4 kmh 30.00 in1015.9 mb 0.00 in0.0 mm 0.00 in/hr0.0 mm/hr 0.00 in0.0 mm
09:06 PM 40.0°F4.4°C 28.7°F-1.8°C 64% 1.8 mph SSW2.9 kmh SSW 4.0 mph6.4 kmh 30.00 in1015.9 mb 0.00 in0.0 mm 0.00 in/hr0.0 mm/hr 0.00 in0.0 mm
09:11 PM 40.0°F4.4°C 28.7°F-1.8°C 64% 0.4 mph WSW0.6 kmh WSW 3.4 mph5.5 kmh 30.00 in1015.9 mb 0.00 in0.0 mm 0.00 in/hr0.0 mm/hr 0.00 in0.0 mm
09:16 PM 40.0°F4.4°C 28.7°F-1.8°C 64% 1.9 mph S3.1 kmh S 4.5 mph7.2 kmh 30.00 in1015.9 mb 0.00 in0.0 mm 0.00 in/hr0.0 mm/hr 0.00 in0.0 mm
09:21 PM 40.0°F4.4°C 28.7°F-1.8°C 64% 0.9 mph SSW1.4 kmh SSW 4.5 mph7.2 kmh 30.00 in1015.9 mb 0.00 in0.0 mm 0.00 in/hr0.0 mm/hr 0.00 in0.0 mm
09:26 PM 39.8°F4.3°C 28.5°F-1.9°C 64% 1.7 mph SSW2.7 kmh SSW 3.1 mph5.0 kmh 30.00 in1015.9 mb 0.00 in0.0 mm 0.00 in/hr0.0 mm/hr 0.00 in0.0 mm
09:31 PM 39.8°F4.3°C 28.5°F-1.9°C 64% 0.4 mph WSW0.6 kmh WSW 2.9 mph4.7 kmh 30.00 in1015.9 mb 0.00 in0.0 mm 0.00 in/hr0.0 mm/hr 0.00 in0.0 mm
09:36 PM 40.0°F4.4°C 28.7°F-1.8°C 64% 0.6 mph N1.0 kmh N 1.3 mph2.1 kmh 30.00 in1015.9 mb 0.00 in0.0 mm 0.00 in/hr0.0 mm/hr 0.00 in0.0 mm
09:41 PM 40.0°F4.4°C 29.1°F-1.6°C 65% 2.2 mph NW3.5 kmh NW 2.2 mph3.5 kmh 30.00 in1015.9 mb 0.00 in0.0 mm 0.00 in/hr0.0 mm/hr 0.00 in0.0 mm
09:46 PM 40.3°F4.6°C 29.1°F-1.6°C 64% 0.2 mph 0.3 kmh 2.2 mph3.5 kmh 30.00 in1015.9 mb 0.00 in0.0 mm 0.00 in/hr0.0 mm/hr 0.00 in0.0 mm
09:51 PM 40.5°F4.7°C 29.3°F-1.5°C 64% 0.8 mph NE1.3 kmh NE 2.0 mph3.2 kmh 30.00 in1015.9 mb 0.00 in0.0 mm 0.00 in/hr0.0 mm/hr 0.00 in0.0 mm
09:56 PM 40.7°F4.8°C 29.4°F-1.4°C 64% 1.8 mph SW2.9 kmh SW 3.4 mph5.5 kmh 29.99 in1015.6 mb 0.00 in0.0 mm 0.00 in/hr0.0 mm/hr 0.00 in0.0 mm
10:01 PM 40.9°F4.9°C 29.3°F-1.5°C 63% 3.4 mph SW5.5 kmh SW 4.0 mph6.4 kmh 29.99 in1015.6 mb 0.00 in0.0 mm 0.00 in/hr0.0 mm/hr 0.00 in0.0 mm
10:06 PM 41.2°F5.1°C 29.5°F-1.4°C 63% 9.8 mph SW15.8 kmh SW 15.7 mph25.3 kmh 29.98 in1015.2 mb 0.00 in0.0 mm 0.00 in/hr0.0 mm/hr 0.00 in0.0 mm
10:11 PM 41.9°F5.5°C 29.9°F-1.2°C 62% 11.8 mph SW19.0 kmh SW 15.7 mph25.3 kmh 29.98 in1015.2 mb 0.00 in0.0 mm 0.00 in/hr0.0 mm/hr 0.00 in0.0 mm
10:16 PM 42.5°F5.8°C 29.5°F-1.4°C 60% 10.2 mph SW16.4 kmh SW 14.3 mph23.0 kmh 29.98 in1015.2 mb 0.00 in0.0 mm 0.00 in/hr0.0 mm/hr 0.00 in0.0 mm
10:21 PM 43.0°F6.1°C 29.6°F-1.3°C 59% 15.5 mph SW24.9 kmh SW 16.3 mph26.2 kmh 29.98 in1015.2 mb 0.00 in0.0 mm 0.00 in/hr0.0 mm/hr 0.00 in0.0 mm
10:26 PM 43.2°F6.2°C 29.3°F-1.5°C 58% 14.4 mph SW23.2 kmh SW 16.8 mph27.0 kmh 29.98 in1015.2 mb 0.00 in0.0 mm 0.00 in/hr0.0 mm/hr 0.00 in0.0 mm
10:31 PM 43.2°F6.2°C 29.3°F-1.5°C 58% 13.4 mph SW21.6 kmh SW 18.1 mph29.1 kmh 29.97 in1014.9 mb 0.00 in0.0 mm 0.00 in/hr0.0 mm/hr 0.00 in0.0 mm
10:36 PM 43.0°F6.1°C 29.2°F-1.6°C 58% 11.1 mph WSW17.9 kmh WSW 18.1 mph29.1 kmh 29.97 in1014.9 mb 0.00 in0.0 mm 0.00 in/hr0.0 mm/hr 0.00 in0.0 mm
10:41 PM 42.8°F6.0°C 29.4°F-1.4°C 59% 11.6 mph SSW18.7 kmh SSW 15.7 mph25.3 kmh 29.97 in1014.9 mb 0.00 in0.0 mm 0.00 in/hr0.0 mm/hr 0.00 in0.0 mm
10:46 PM 42.7°F5.9°C 29.3°F-1.5°C 59% 11.3 mph WSW18.2 kmh WSW 15.7 mph25.3 kmh 29.97 in1014.9 mb 0.00 in0.0 mm 0.00 in/hr0.0 mm/hr 0.00 in0.0 mm
10:51 PM 42.3°F5.7°C 29.4°F-1.4°C 60% 6.3 mph S10.1 kmh S 13.0 mph20.9 kmh 29.97 in1014.9 mb 0.00 in0.0 mm 0.00 in/hr0.0 mm/hr 0.00 in0.0 mm
10:56 PM 42.1°F5.6°C 29.3°F-1.5°C 60% 6.6 mph SW10.6 kmh SW 12.3 mph19.8 kmh 29.97 in1014.9 mb 0.00 in0.0 mm 0.00 in/hr0.0 mm/hr 0.00 in0.0 mm
11:02 PM 41.8°F5.4°C 29.3°F-1.5°C 61% 7.9 mph SW12.7 kmh SW 9.6 mph15.4 kmh 29.97 in1014.9 mb 0.00 in0.0 mm 0.00 in/hr0.0 mm/hr 0.00 in0.0 mm
11:07 PM 41.4°F5.2°C 29.3°F-1.5°C 62% 10.0 mph SW16.1 kmh SW 11.2 mph18.0 kmh 29.97 in1014.9 mb 0.00 in0.0 mm 0.00 in/hr0.0 mm/hr 0.00 in0.0 mm
11:11 PM 41.4°F5.2°C 29.3°F-1.5°C 62% 7.4 mph SW11.9 kmh SW 11.4 mph18.3 kmh 29.97 in1014.9 mb 0.00 in0.0 mm 0.00 in/hr0.0 mm/hr 0.00 in0.0 mm
11:16 PM 41.4°F5.2°C 29.7°F-1.3°C 63% 8.8 mph SW14.2 kmh SW 11.4 mph18.3 kmh 29.97 in1014.9 mb 0.00 in0.0 mm 0.00 in/hr0.0 mm/hr 0.00 in0.0 mm
11:21 PM 41.2°F5.1°C 29.5°F-1.4°C 63% 7.8 mph SW12.6 kmh SW 9.8 mph15.8 kmh 29.98 in1015.2 mb 0.00 in0.0 mm 0.00 in/hr0.0 mm/hr 0.00 in0.0 mm
11:26 PM 41.0°F5.0°C 29.4°F-1.4°C 63% 4.9 mph SW7.9 kmh SW 10.5 mph16.9 kmh 29.98 in1015.2 mb 0.00 in0.0 mm 0.00 in/hr0.0 mm/hr 0.00 in0.0 mm
11:31 PM 40.9°F4.9°C 29.3°F-1.5°C 63% 5.0 mph SW8.0 kmh SW 10.5 mph16.9 kmh 29.99 in1015.6 mb 0.00 in0.0 mm 0.00 in/hr0.0 mm/hr 0.00 in0.0 mm
11:36 PM 40.7°F4.8°C 29.4°F-1.4°C 64% 4.9 mph SW7.9 kmh SW 8.1 mph13.0 kmh 30.00 in1015.9 mb 0.00 in0.0 mm 0.00 in/hr0.0 mm/hr 0.00 in0.0 mm
11:41 PM 40.7°F4.8°C 29.8°F-1.2°C 65% 2.5 mph SW4.0 kmh SW 6.5 mph10.5 kmh 30.00 in1015.9 mb 0.00 in0.0 mm 0.00 in/hr0.0 mm/hr 0.00 in0.0 mm
11:46 PM 40.7°F4.8°C 29.8°F-1.2°C 65% 5.6 mph SW9.0 kmh SW 6.3 mph10.1 kmh 30.00 in1015.9 mb 0.00 in0.0 mm 0.00 in/hr0.0 mm/hr 0.00 in0.0 mm
11:51 PM 40.7°F4.8°C 30.2°F-1.0°C 66% 4.2 mph WSW6.8 kmh WSW 11.0 mph17.7 kmh 30.00 in1015.9 mb 0.00 in0.0 mm 0.00 in/hr0.0 mm/hr 0.00 in0.0 mm
11:56 PM 40.7°F4.8°C 30.2°F-1.0°C 66% 6.3 mph SW10.1 kmh SW 11.0 mph17.7 kmh 30.00 in1015.9 mb 0.00 in0.0 mm 0.00 in/hr0.0 mm/hr 0.00 in0.0 mm